createdAt,value
2022-11-10T00:00:25.218Z,97664.00
2022-11-10T00:03:11.188Z,97667.00
2022-11-10T00:05:55.985Z,97670.00
2022-11-10T00:08:40.753Z,97680.00
2022-11-10T00:11:25.842Z,97679.00
2022-11-10T00:14:28.748Z,97691.00
2022-11-10T00:17:14.315Z,97691.00
2022-11-10T00:19:59.174Z,97690.00
2022-11-10T00:22:43.903Z,97701.00
2022-11-10T00:25:28.313Z,97703.00
2022-11-10T00:28:12.877Z,97713.00
2022-11-10T00:30:58.512Z,97719.00
2022-11-10T00:33:44.120Z,97728.00
2022-11-10T00:36:28.877Z,97734.00
2022-11-10T00:39:13.551Z,97728.00
2022-11-10T00:41:58.241Z,97715.00
2022-11-10T00:44:42.807Z,97731.00
2022-11-10T00:47:27.411Z,97736.00
2022-11-10T00:50:12.224Z,97736.00
2022-11-10T00:52:57.136Z,97744.00
2022-11-10T00:55:42.105Z,97741.00
2022-11-10T00:58:26.900Z,97732.00
2022-11-10T01:01:12.600Z,97734.00
2022-11-10T01:03:57.384Z,97730.00
2022-11-10T01:06:43.172Z,97747.00
2022-11-10T01:09:27.709Z,97744.00
2022-11-10T01:12:13.698Z,97748.00
2022-11-10T01:14:58.512Z,97752.00
2022-11-10T01:17:43.192Z,97750.00
2022-11-10T01:20:27.824Z,97766.00
2022-11-10T01:23:12.400Z,97766.00
2022-11-10T01:26:07.961Z,97776.00
2022-11-10T01:28:53.161Z,97766.00
2022-11-10T01:31:38.009Z,97771.00
2022-11-10T01:34:22.762Z,97775.00
2022-11-10T01:37:07.834Z,97768.00
2022-11-10T01:39:52.422Z,97760.00
2022-11-10T01:42:56.660Z,97774.00
2022-11-10T01:46:02.186Z,97771.00
2022-11-10T01:48:58.393Z,97767.00
2022-11-10T01:52:00.211Z,97770.00
2022-11-10T01:54:48.982Z,97768.00
2022-11-10T01:57:37.759Z,97783.00
2022-11-10T02:00:23.197Z,97793.00
2022-11-10T02:03:39.656Z,97780.00
2022-11-10T02:06:32.548Z,97792.00
2022-11-10T02:09:17.788Z,97782.00
2022-11-10T02:12:03.503Z,97789.00
2022-11-10T02:14:48.128Z,97784.00
2022-11-10T02:17:33.348Z,97789.00
2022-11-10T02:20:21.086Z,97794.00
2022-11-10T02:23:34.684Z,97799.00
2022-11-10T02:26:26.595Z,97799.00
2022-11-10T02:29:11.703Z,97796.00
2022-11-10T02:31:56.573Z,97809.00
2022-11-10T02:34:42.026Z,97806.00
2022-11-10T02:37:26.709Z,97818.00
2022-11-10T02:40:11.542Z,97805.00
2022-11-10T02:42:56.065Z,97822.00
2022-11-10T02:45:43.351Z,97832.00
2022-11-10T02:48:30.623Z,97826.00
2022-11-10T02:51:15.249Z,97838.00
2022-11-10T02:54:00.310Z,97830.00
2022-11-10T02:56:44.820Z,97815.00
2022-11-10T02:59:29.341Z,97819.00
2022-11-10T03:02:14.603Z,97818.00
2022-11-10T03:04:59.650Z,97822.00
2022-11-10T03:07:44.606Z,97840.00
2022-11-10T03:10:30.525Z,97841.00
2022-11-10T03:13:15.555Z,97835.00
2022-11-10T03:16:00.039Z,97845.00
2022-11-10T03:18:44.691Z,97847.00
2022-11-10T03:21:29.261Z,97853.00
2022-11-10T03:24:13.825Z,97848.00
2022-11-10T03:26:58.328Z,97865.00
2022-11-10T03:29:42.834Z,97867.00
2022-11-10T03:32:27.480Z,97863.00
2022-11-10T03:35:12.076Z,97876.00
2022-11-10T03:37:57.097Z,97887.00
2022-11-10T03:41:12.014Z,97881.00
2022-11-10T03:43:47.094Z,97878.00
2022-11-10T03:46:32.119Z,97875.00
2022-11-10T03:49:17.156Z,97869.00
2022-11-10T03:52:01.802Z,97852.00
2022-11-10T03:54:46.587Z,97866.00
2022-11-10T03:57:31.671Z,97866.00
2022-11-10T04:00:16.257Z,97863.00
2022-11-10T04:03:01.427Z,97873.00
2022-11-10T04:06:04.865Z,97858.00
2022-11-10T04:09:01.167Z,97866.00
2022-11-10T04:12:03.980Z,97884.00
2022-11-10T04:15:06.928Z,97895.00
2022-11-10T04:17:51.515Z,97898.00
2022-11-10T04:20:36.091Z,97912.00
2022-11-10T04:23:27.429Z,97908.00
2022-11-10T04:26:29.247Z,97902.00
2022-11-10T04:29:17.412Z,97920.00
2022-11-10T04:32:02.250Z,97929.00
2022-11-10T04:34:46.836Z,97917.00
2022-11-10T04:37:31.250Z,97936.00
2022-11-10T04:40:16.021Z,97946.00
2022-11-10T04:43:00.442Z,97958.00
2022-11-10T04:45:45.150Z,97949.00
2022-11-10T04:48:30.350Z,97949.00
2022-11-10T04:51:16.629Z,97949.00
2022-11-10T04:54:02.674Z,97953.00
2022-11-10T04:56:47.070Z,97960.00
2022-11-10T04:59:31.762Z,97977.00
2022-11-10T05:02:16.828Z,97966.00
2022-11-10T05:05:02.663Z,97967.00
2022-11-10T05:07:48.266Z,97973.00
2022-11-10T05:10:34.721Z,97965.00
2022-11-10T05:13:19.894Z,97984.00
2022-11-10T05:16:06.269Z,97986.00
2022-11-10T05:18:53.386Z,97989.00
2022-11-10T05:21:38.048Z,97990.00
2022-11-10T05:24:22.933Z,97997.00
2022-11-10T05:27:10.482Z,98006.00
2022-11-10T05:29:55.757Z,98009.00
2022-11-10T05:32:40.695Z,98011.00
2022-11-10T05:35:25.467Z,97991.00
2022-11-10T05:38:10.405Z,98010.00
2022-11-10T05:40:55.535Z,98006.00
2022-11-10T05:43:40.373Z,98013.00
2022-11-10T05:46:25.221Z,98023.00
2022-11-10T05:49:10.201Z,98011.00
2022-11-10T05:51:54.897Z,98026.00
2022-11-10T05:54:39.765Z,98034.00
2022-11-10T05:57:24.355Z,98040.00
2022-11-10T06:00:10.163Z,98038.00
2022-11-10T06:03:05.308Z,98040.00
2022-11-10T06:05:50.709Z,98060.00
2022-11-10T06:08:51.630Z,98062.00
2022-11-10T06:17:23.461Z,98067.00
2022-11-10T06:20:08.652Z,98076.00
2022-11-10T06:23:03.751Z,98084.00
2022-11-10T06:25:48.604Z,98099.00
2022-11-10T06:28:33.380Z,98094.00
2022-11-10T06:31:18.303Z,98094.00
2022-11-10T06:34:03.227Z,98095.00
2022-11-10T06:36:48.148Z,98105.00
2022-11-10T06:39:32.800Z,98120.00
2022-11-10T06:42:17.275Z,98129.00
2022-11-10T06:45:02.415Z,98126.00
2022-11-10T06:47:47.219Z,98124.00
2022-11-10T06:50:32.391Z,98132.00
2022-11-10T06:53:18.447Z,98140.00
2022-11-10T06:56:06.009Z,98163.00
2022-11-10T06:58:51.006Z,98152.00
2022-11-10T07:01:35.645Z,98166.00
2022-11-10T07:04:21.024Z,98165.00
2022-11-10T07:07:06.490Z,98152.00
2022-11-10T07:09:51.339Z,98156.00
2022-11-10T07:12:36.138Z,98153.00
2022-11-10T07:15:20.903Z,98163.00
2022-11-10T07:18:05.720Z,98178.00
2022-11-10T07:20:50.677Z,98190.00
2022-11-10T07:23:35.375Z,98201.00
2022-11-10T07:26:20.328Z,98175.00
2022-11-10T07:29:04.872Z,98192.00
2022-11-10T07:31:49.559Z,98199.00
2022-11-10T07:34:34.133Z,98181.00
2022-11-10T07:37:18.697Z,98204.00
2022-11-10T07:40:03.711Z,98183.00
2022-11-10T07:42:48.926Z,98206.00
2022-11-10T07:45:33.769Z,98210.00
2022-11-10T07:48:19.143Z,98211.00
2022-11-10T07:51:04.440Z,98206.00
2022-11-10T07:53:49.548Z,98219.00
2022-11-10T07:56:34.539Z,98213.00
2022-11-10T07:59:19.092Z,98226.00
2022-11-10T08:02:03.767Z,98232.00
2022-11-10T08:04:48.769Z,98230.00
2022-11-10T08:07:33.467Z,98242.00
2022-11-10T08:10:18.451Z,98253.00
2022-11-10T08:13:07.342Z,98237.00
2022-11-10T08:15:51.903Z,98245.00
2022-11-10T08:18:36.844Z,98244.00
2022-11-10T08:21:21.504Z,98251.00
2022-11-10T08:24:07.685Z,98258.00
2022-11-10T08:26:53.292Z,98257.00
2022-11-10T08:29:37.973Z,98255.00
2022-11-10T08:32:22.473Z,98267.00
2022-11-10T08:35:07.693Z,98266.00
2022-11-10T08:37:53.114Z,98282.00
2022-11-10T08:40:39.302Z,98279.00
2022-11-10T08:43:25.032Z,98291.00
2022-11-10T08:46:09.915Z,98301.00
2022-11-10T08:48:54.411Z,98297.00
2022-11-10T08:51:39.462Z,98296.00
2022-11-10T08:54:24.091Z,98318.00
2022-11-10T08:57:08.506Z,98329.00
2022-11-10T08:59:53.140Z,98334.00
2022-11-10T09:02:37.743Z,98335.00
2022-11-10T09:05:23.114Z,98329.00
2022-11-10T09:08:08.981Z,98337.00
2022-11-10T09:10:53.698Z,98326.00
2022-11-10T09:13:38.710Z,98344.00
2022-11-10T09:16:23.308Z,98337.00
2022-11-10T09:19:08.112Z,98332.00
2022-11-10T09:21:53.064Z,98338.00
2022-11-10T09:24:37.857Z,98342.00
2022-11-10T09:27:22.831Z,98350.00
2022-11-10T09:30:11.773Z,98374.00
2022-11-10T09:33:00.213Z,98365.00
2022-11-10T09:35:44.938Z,98351.00
2022-11-10T09:38:29.903Z,98376.00
2022-11-10T09:41:15.021Z,98378.00
2022-11-10T09:44:39.297Z,98366.00
2022-11-10T09:51:08.119Z,98371.00
2022-11-10T09:54:00.739Z,98354.00
2022-11-10T09:56:45.555Z,98365.00
2022-11-10T09:59:33.205Z,98369.00
2022-11-10T10:02:40.391Z,98376.00
2022-11-10T10:05:54.965Z,98362.00
2022-11-10T10:09:05.018Z,98381.00
2022-11-10T10:12:42.960Z,98391.00
2022-11-10T10:16:15.586Z,98391.00
2022-11-10T10:19:32.911Z,98394.00
2022-11-10T10:22:34.948Z,98390.00
2022-11-10T10:25:26.098Z,98387.00
2022-11-10T10:28:40.421Z,98394.00
2022-11-10T10:31:34.462Z,98407.00
2022-11-10T10:34:31.935Z,98401.00
2022-11-10T10:37:43.072Z,98403.00
2022-11-10T10:40:27.620Z,98383.00
2022-11-10T10:43:12.410Z,98388.00
2022-11-10T10:46:08.728Z,98382.00
2022-11-10T10:52:15.782Z,98392.00
2022-11-10T10:55:06.392Z,98404.00
2022-11-10T10:57:57.827Z,98396.00
2022-11-10T11:00:45.937Z,98399.00
2022-11-10T11:03:45.926Z,98401.00
2022-11-10T11:06:33.560Z,98396.00
2022-11-10T11:09:41.448Z,98391.00
2022-11-10T11:12:32.880Z,98406.00
2022-11-10T11:15:28.752Z,98395.00
2022-11-10T11:18:17.821Z,98396.00
2022-11-10T11:21:23.686Z,98392.00
2022-11-10T11:25:05.400Z,98397.00
2022-11-10T11:28:02.965Z,98394.00
2022-11-10T11:31:01.244Z,98408.00
2022-11-10T11:34:16.349Z,98407.00
2022-11-10T11:37:37.538Z,98403.00
2022-11-10T11:41:02.305Z,98407.00
2022-11-10T11:44:18.478Z,98422.00
2022-11-10T11:47:34.891Z,98416.00
2022-11-10T11:50:38.197Z,98431.00
2022-11-10T11:53:37.198Z,98412.00
2022-11-10T11:56:40.433Z,98446.00
2022-11-10T12:00:03.584Z,98449.00
2022-11-10T12:04:06.162Z,98436.00
2022-11-10T12:07:30.798Z,98449.00
2022-11-10T12:10:40.525Z,98442.00
2022-11-10T12:14:04.824Z,98452.00
2022-11-10T12:17:21.019Z,98457.00
2022-11-10T12:20:52.818Z,98446.00
2022-11-10T12:24:14.856Z,98459.00
2022-11-10T12:27:15.891Z,98456.00
2022-11-10T12:30:17.371Z,98452.00
2022-11-10T12:33:42.892Z,98456.00
2022-11-10T12:36:30.210Z,98469.00
2022-11-10T12:39:45.137Z,98455.00
2022-11-10T12:42:33.163Z,98471.00
2022-11-10T12:45:23.614Z,98470.00
2022-11-10T12:48:15.206Z,98473.00
2022-11-10T12:51:27.180Z,98463.00
2022-11-10T12:54:17.187Z,98460.00
2022-11-10T12:57:19.047Z,98470.00
2022-11-10T13:00:28.028Z,98460.00
2022-11-10T13:03:36.798Z,98460.00
2022-11-10T13:06:36.334Z,98472.00
2022-11-10T13:09:37.277Z,98470.00
2022-11-10T13:12:25.170Z,98482.00
2022-11-10T13:15:38.832Z,98482.00
2022-11-10T13:18:43.814Z,98475.00
2022-11-10T13:22:11.313Z,98492.00
2022-11-10T13:25:37.205Z,98488.00
2022-11-10T13:28:46.855Z,98493.00
2022-11-10T13:31:31.688Z,98492.00
2022-11-10T13:34:31.855Z,98489.00
2022-11-10T13:37:32.167Z,98499.00
2022-11-10T13:40:26.473Z,98501.00
2022-11-10T13:43:17.510Z,98511.00
2022-11-10T13:46:04.351Z,98515.00
2022-11-10T13:49:21.036Z,98517.00
2022-11-10T13:52:25.986Z,98520.00
2022-11-10T13:55:48.304Z,98516.00
2022-11-10T13:58:34.597Z,98526.00
2022-11-10T14:01:29.673Z,98519.00
2022-11-10T14:04:43.161Z,98513.00
2022-11-10T14:07:38.419Z,98521.00
2022-11-10T14:10:54.035Z,98503.00
2022-11-10T14:13:42.150Z,98517.00
2022-11-10T14:16:31.931Z,98516.00
2022-11-10T14:19:33.123Z,98525.00
2022-11-10T14:22:37.047Z,98516.00
2022-11-10T14:25:42.376Z,98528.00
2022-11-10T14:28:37.267Z,98518.00
2022-11-10T14:31:25.372Z,98531.00
2022-11-10T14:34:16.856Z,98523.00
2022-11-10T14:37:03.580Z,98515.00
2022-11-10T14:39:55.642Z,98513.00
2022-11-10T14:42:40.805Z,98520.00
2022-11-10T14:45:28.067Z,98524.00
2022-11-10T14:48:20.096Z,98535.00
2022-11-10T14:51:18.385Z,98525.00
2022-11-10T14:54:03.374Z,98527.00
2022-11-10T14:56:48.468Z,98514.00
2022-11-10T14:59:33.523Z,98521.00
2022-11-10T15:02:19.698Z,98516.00
2022-11-10T15:05:05.265Z,98507.00
2022-11-10T15:07:57.946Z,98523.00
2022-11-10T15:10:50.092Z,98520.00
2022-11-10T15:13:38.054Z,98515.00
2022-11-10T15:16:36.394Z,98506.00
2022-11-10T15:19:38.740Z,98511.00
2022-11-10T15:22:34.694Z,98509.00
2022-11-10T15:25:23.373Z,98512.00
2022-11-10T15:28:31.049Z,98536.00
2022-11-10T15:31:29.212Z,98529.00
2022-11-10T15:34:40.649Z,98530.00
2022-11-10T15:37:31.562Z,98541.00
2022-11-10T15:40:50.816Z,98531.00
2022-11-10T15:43:35.469Z,98531.00
2022-11-10T15:46:24.977Z,98527.00
2022-11-10T15:49:27.005Z,98543.00
2022-11-10T15:52:21.891Z,98555.00
2022-11-10T15:55:20.798Z,98546.00
2022-11-10T15:58:17.790Z,98548.00
2022-11-10T16:01:02.986Z,98562.00
2022-11-10T16:03:47.825Z,98574.00
2022-11-10T16:06:32.545Z,98570.00
2022-11-10T16:09:17.687Z,98570.00
2022-11-10T16:12:02.296Z,98565.00
2022-11-10T16:14:51.220Z,98572.00
2022-11-10T16:17:36.034Z,98573.00
2022-11-10T16:20:20.487Z,98564.00
2022-11-10T16:23:05.903Z,98567.00
2022-11-10T16:25:54.478Z,98582.00
2022-11-10T16:28:43.209Z,98594.00
2022-11-10T16:31:28.505Z,98585.00
2022-11-10T16:34:14.145Z,98595.00
2022-11-10T16:36:59.236Z,98601.00
2022-11-10T16:39:44.240Z,98601.00
2022-11-10T16:42:28.921Z,98596.00
2022-11-10T16:45:23.268Z,98593.00
2022-11-10T16:48:08.597Z,98603.00
2022-11-10T16:50:57.662Z,98604.00
2022-11-10T16:53:46.118Z,98609.00
2022-11-10T16:56:30.762Z,98614.00
2022-11-10T16:59:15.496Z,98623.00
2022-11-10T17:02:00.069Z,98630.00
2022-11-10T17:04:47.968Z,98639.00
2022-11-10T17:07:33.432Z,98634.00
2022-11-10T17:10:20.616Z,98642.00
2022-11-10T17:13:06.347Z,98641.00
2022-11-10T17:16:04.203Z,98659.00
2022-11-10T17:18:51.138Z,98655.00
2022-11-10T17:21:36.454Z,98654.00
2022-11-10T17:24:21.364Z,98654.00
2022-11-10T17:27:07.552Z,98666.00
2022-11-10T17:29:52.476Z,98676.00
2022-11-10T17:33:03.468Z,98669.00
2022-11-10T17:35:46.239Z,98684.00
2022-11-10T17:38:35.394Z,98682.00
2022-11-10T17:41:20.376Z,98683.00
2022-11-10T17:44:14.358Z,98676.00
2022-11-10T17:46:59.387Z,98672.00
2022-11-10T17:49:44.068Z,98671.00
2022-11-10T17:52:28.618Z,98668.00
2022-11-10T17:55:18.910Z,98685.00
2022-11-10T17:58:03.962Z,98675.00
2022-11-10T18:00:50.150Z,98683.00
2022-11-10T18:03:35.194Z,98693.00
2022-11-10T18:06:20.706Z,98687.00
2022-11-10T18:09:05.216Z,98686.00
2022-11-10T18:11:49.711Z,98699.00
2022-11-10T18:14:34.327Z,98688.00
2022-11-10T18:17:19.051Z,98728.00
2022-11-10T18:20:04.578Z,98715.00
2022-11-10T18:22:49.264Z,98711.00
2022-11-10T18:25:34.810Z,98704.00
2022-11-10T18:28:22.205Z,98723.00
2022-11-10T18:31:10.656Z,98725.00
2022-11-10T18:33:55.396Z,98738.00
2022-11-10T18:36:40.105Z,98728.00
2022-11-10T18:39:25.015Z,98756.00
2022-11-10T18:42:09.559Z,98746.00
2022-11-10T18:44:54.536Z,98745.00
2022-11-10T18:47:39.376Z,98754.00
2022-11-10T18:50:23.972Z,98736.00
2022-11-10T18:53:08.582Z,98721.00
2022-11-10T18:55:54.915Z,98728.00
2022-11-10T18:58:41.205Z,98732.00
2022-11-10T19:01:26.680Z,98745.00
2022-11-10T19:04:13.131Z,98731.00
2022-11-10T19:06:57.925Z,98730.00
2022-11-10T19:09:43.631Z,98707.00
2022-11-10T19:12:28.666Z,98718.00
2022-11-10T19:15:13.032Z,98715.00
2022-11-10T19:17:57.502Z,98707.00
2022-11-10T19:20:42.556Z,98704.00
2022-11-10T19:23:27.489Z,98710.00
2022-11-10T19:26:22.418Z,98695.00
2022-11-10T19:29:07.816Z,98708.00
2022-11-10T19:31:52.415Z,98712.00
2022-11-10T19:34:36.980Z,98732.00
2022-11-10T19:37:22.447Z,98727.00
2022-11-10T19:40:08.594Z,98742.00
2022-11-10T19:42:53.486Z,98751.00
2022-11-10T19:45:38.187Z,98743.00
2022-11-10T19:48:23.022Z,98759.00
2022-11-10T19:51:09.517Z,98762.00
2022-11-10T19:54:08.184Z,98769.00
2022-11-10T19:57:00.392Z,98766.00
2022-11-10T19:59:45.037Z,98776.00
2022-11-10T20:02:29.623Z,98779.00
2022-11-10T20:05:15.883Z,98771.00
2022-11-10T20:08:12.444Z,98769.00
2022-11-10T20:11:12.512Z,98777.00
2022-11-10T20:14:02.930Z,98765.00
2022-11-10T20:16:47.613Z,98767.00
2022-11-10T20:19:40.474Z,98772.00
2022-11-10T20:22:26.115Z,98774.00
2022-11-10T20:25:11.416Z,98785.00
2022-11-10T20:27:57.406Z,98785.00
2022-11-10T20:30:43.790Z,98786.00
2022-11-10T20:33:30.144Z,98778.00
2022-11-10T20:36:27.670Z,98782.00
2022-11-10T20:39:12.215Z,98773.00
2022-11-10T20:41:56.947Z,98764.00
2022-11-10T20:44:42.046Z,98764.00
2022-11-10T20:47:30.012Z,98756.00
2022-11-10T20:50:19.205Z,98752.00
2022-11-10T20:53:06.409Z,98759.00
2022-11-10T20:56:01.085Z,98759.00
2022-11-10T20:58:45.675Z,98760.00
2022-11-10T21:01:31.733Z,98766.00
2022-11-10T21:04:17.274Z,98761.00
2022-11-10T21:07:02.734Z,98766.00
2022-11-10T21:09:47.518Z,98768.00
2022-11-10T21:12:50.152Z,98776.00
2022-11-10T21:15:38.797Z,98757.00
2022-11-10T21:18:30.951Z,98751.00
2022-11-10T21:21:25.605Z,98758.00
2022-11-10T21:24:11.390Z,98762.00
2022-11-10T21:26:57.480Z,98756.00
2022-11-10T21:29:42.318Z,98757.00
2022-11-10T21:32:27.101Z,98766.00
2022-11-10T21:35:11.838Z,98768.00
2022-11-10T21:37:56.610Z,98784.00
2022-11-10T21:40:41.457Z,98781.00
2022-11-10T21:43:26.002Z,98798.00
2022-11-10T21:46:10.675Z,98780.00
2022-11-10T21:48:55.214Z,98786.00
2022-11-10T21:51:40.196Z,98786.00
2022-11-10T21:54:24.624Z,98781.00
2022-11-10T21:57:09.387Z,98805.00
2022-11-10T21:59:53.852Z,98807.00
2022-11-10T22:02:38.510Z,98797.00
2022-11-10T22:05:23.114Z,98805.00
2022-11-10T22:08:07.769Z,98799.00
2022-11-10T22:11:10.735Z,98802.00
2022-11-10T22:14:13.640Z,98805.00
2022-11-10T22:17:17.843Z,98806.00
2022-11-10T22:20:03.052Z,98813.00
2022-11-10T22:22:49.429Z,98802.00
2022-11-10T22:25:34.026Z,98807.00
2022-11-10T22:28:19.320Z,98804.00
2022-11-10T22:31:06.648Z,98809.00
2022-11-10T22:33:51.324Z,98803.00
2022-11-10T22:36:35.972Z,98814.00
2022-11-10T22:39:20.531Z,98801.00
2022-11-10T22:42:23.506Z,98796.00
2022-11-10T22:45:09.080Z,98805.00
2022-11-10T22:48:13.271Z,98804.00
2022-11-10T22:50:59.266Z,98813.00
2022-11-10T22:53:43.993Z,98822.00
2022-11-10T22:56:31.267Z,98825.00
2022-11-10T22:59:17.058Z,98826.00
2022-11-10T23:02:01.912Z,98826.00
2022-11-10T23:04:46.777Z,98821.00
2022-11-10T23:07:31.331Z,98815.00
2022-11-10T23:10:15.915Z,98825.00
2022-11-10T23:13:00.777Z,98837.00
2022-11-10T23:15:51.186Z,98839.00
2022-11-10T23:18:41.307Z,98846.00
2022-11-10T23:21:29.046Z,98844.00
2022-11-10T23:24:14.984Z,98831.00
2022-11-10T23:26:59.532Z,98833.00
2022-11-10T23:29:44.021Z,98844.00
2022-11-10T23:32:28.609Z,98836.00
2022-11-10T23:35:13.091Z,98830.00
2022-11-10T23:37:59.552Z,98828.00
2022-11-10T23:40:44.226Z,98854.00
2022-11-10T23:43:29.991Z,98864.00
2022-11-10T23:46:15.219Z,98868.00
2022-11-10T23:48:59.751Z,98859.00
2022-11-10T23:51:44.412Z,98853.00
2022-11-10T23:54:28.886Z,98840.00
2022-11-10T23:57:13.444Z,98840.00
2022-11-10T23:59:57.930Z,98829.00
